Crown Topaz — 3FAS9 — position and weather

sailwx.info

Track history (hours):
 
Tides and Currents Weather Stations Pressure Air Temp Water Temp Dewpoint Dewpoint Depression Visibility Wind Speed Wind Dir Waves Ship Positions

Crown Topaz

Last reported at 2016-Feb-06 20:24 UTC. Time now 2016-Feb-13 06:48 UTC.
Position N 37°04' W 029°46'.

Length 152 m; draft 6.2 m.

Type: Cargo ship. MMSI: 357144000.

Date/timePositionNaut miles runAvg speedWind from/ knotsBaromVisibWave heightAir tempDewpointWater temp
2016-Feb-06 20:24N 37°04' W 029°46'1618.5
2016-Feb-06 19:33N 37°11' W 029°29'1918.8
2016-Feb-06 18:33N 37°20' W 029°08'1918.6
2016-Feb-06 17:33N 37°29' W 028°47'1918.6
2016-Feb-06 16:33N 37°38' W 028°27'1918.6
2016-Feb-06 15:34N 37°47' W 028°06'1919.1
2016-Feb-06 14:33N 37°56' W 027°45'1919.0
2016-Feb-06 13:33N 38°05' W 027°23'1918.7
2016-Feb-06 12:34N 38°14' W 027°02'1918.8
2016-Feb-06 11:34N 38°23' W 026°41'1918.7
2016-Feb-06 10:33N 38°31' W 026°20'1918.9
2016-Feb-06 09:33N 38°40' W 025°59'1616.4
2016-Feb-06 08:34N 38°43' W 025°38'4 3.9
2016-Feb-06 07:34N 38°45' W 025°35'3 3.3
2016-Feb-06 06:33N 38°48' W 025°33'2 2.4
2016-Feb-06 05:33N 38°50' W 025°34'2 2.3
2016-Feb-06 04:33N 38°52' W 025°35'1111.5
2016-Feb-06 03:33N 38°60' W 025°24'  
2016-Feb-03 09:23N 50°17' W 001°23'2418.7
2016-Feb-03 08:07N 50°22' W 000°47'1118.8
2016-Feb-03 07:30N 50°25' W 000°30'1818.5
2016-Feb-03 06:33N 50°29' W 000°03'4418.1
2016-Feb-03 04:07N 50°48' E 000°60'1119.4
2016-Feb-03 03:33N 50°56' E 001°13'2120.6
2016-Feb-03 02:33N 51°09' E 001°38'2020.4
2016-Feb-03 01:34N 51°24' E 001°59'1817.5
2016-Feb-03 00:32N 51°22' E 002°27'1212.2
2016-Feb-02 23:32N 51°22' E 002°47'1313.6
2016-Feb-02 22:33N 51°24' E 003°08'1414.1
2016-Feb-02 21:33N 51°25' E 003°31'8 7.7
2016-Feb-02 20:33N 51°24' E 003°43'9 9.0
2016-Feb-02 19:33N 51°24' E 003°57'7 7.1
2016-Feb-02 18:33N 51°22' E 004°08'6 5.8
2016-Feb-02 17:34N 51°21' E 004°17'0 0.0
2016-Feb-02 16:34N 51°21' E 004°17'3 3.4
2016-Feb-02 15:33N 51°18' E 004°20'3 2.8
2016-Feb-02 14:33N 51°16' E 004°23'0 0.0
2016-Feb-02 13:33N 51°16' E 004°23'0 0.0
2016-Feb-02 12:33N 51°16' E 004°23'0 0.0
2016-Feb-02 11:33N 51°16' E 004°23'0 0.0
2016-Feb-02 10:33N 51°16' E 004°23'0 0.0
2016-Feb-02 09:33N 51°16' E 004°23'0 0.0
2016-Feb-02 08:33N 51°16' E 004°23'0 0.0
2016-Feb-02 07:33N 51°16' E 004°23'0 0.0
2016-Feb-02 06:33N 51°16' E 004°23'0 0.0
2016-Feb-02 05:33N 51°16' E 004°23'0 0.0
2016-Feb-02 04:33N 51°16' E 004°23'0 0.0
2016-Feb-02 03:33N 51°16' E 004°23'0 0.0
2016-Feb-02 02:33N 51°16' E 004°23'0 0.0
2016-Feb-02 01:33N 51°16' E 004°23'0 0.0
2016-Feb-02 00:33N 51°16' E 004°23'0 0.0
2016-Feb-01 23:33N 51°16' E 004°23'0 0.0
2016-Feb-01 22:33N 51°16' E 004°23'0 0.0
2016-Feb-01 21:33N 51°16' E 004°23'0 0.0
2016-Feb-01 20:33N 51°16' E 004°23'0 0.0
2016-Feb-01 19:33N 51°16' E 004°23'0 0.0
2016-Feb-01 18:33N 51°16' E 004°23'0 0.0
2016-Feb-01 17:33N 51°16' E 004°23'0 0.0
2016-Feb-01 16:33N 51°16' E 004°23'0 0.0
2016-Feb-01 15:33N 51°16' E 004°23'0 0.0
2016-Feb-01 14:33N 51°16' E 004°23'0 0.0
2016-Feb-01 13:33N 51°16' E 004°23'0 0.0
2016-Feb-01 12:33N 51°16' E 004°23'0 0.0
2016-Feb-01 11:33N 51°16' E 004°23'0 0.0
2016-Feb-01 10:33N 51°16' E 004°23'0 0.0
2016-Feb-01 09:33N 51°16' E 004°23'1 0.7
2016-Feb-01 08:33N 51°16' E 004°22'5 5.1
2016-Feb-01 07:33N 51°20' E 004°18'1 0.9
2016-Feb-01 06:33N 51°21' E 004°17'3 3.2
2016-Feb-01 05:33N 51°23' E 004°13'10 9.8
2016-Feb-01 04:34N 51°24' E 003°57'1110.5
2016-Feb-01 03:34N 51°26' E 003°41'1313.4
2016-Feb-01 02:33N 51°24' E 003°19'1413.8
2016-Feb-01 01:33N 51°23' E 002°58'1110.9
2016-Feb-01 00:31N 51°22' E 002°40'10 9.7
2016-Jan-31 23:29N 51°20' E 002°24'1314.0
2016-Jan-31 22:33N 51°14' E 002°06'1312.7
2016-Jan-31 21:33N 51°07' E 001°48'1312.7
2016-Jan-31 20:33N 50°59' E 001°33'1612.5
2016-Jan-31 19:15N 50°44' E 001°21'8011.1
2016-Jan-31 12:05N 50°35' W 000°44'815.9
2016-Jan-31 11:33N 50°40' W 000°55'1110.7
2016-Jan-31 10:33N 50°48' W 001°07'1 1.2
2016-Jan-31 09:32N 50°49' W 001°06'0 0.0
2016-Jan-31 08:32N 50°49' W 001°06'0 0.0
2016-Jan-31 07:32N 50°49' W 001°06'0 0.0
2016-Jan-31 06:32N 50°49' W 001°06'0 0.0
2016-Jan-31 05:32N 50°49' W 001°06'0 0.0
2016-Jan-31 04:32N 50°49' W 001°06'0 0.0
2016-Jan-31 03:32N 50°49' W 001°06'0 0.0
2016-Jan-31 02:32N 50°49' W 001°06'0 0.0
2016-Jan-31 01:32N 50°49' W 001°06'0 0.0
2016-Jan-31 00:32N 50°49' W 001°06'0 0.0
2016-Jan-30 23:32N 50°49' W 001°06'0 0.0
2016-Jan-30 22:32N 50°49' W 001°06'0 0.0
2016-Jan-30 21:32N 50°49' W 001°06'0 0.0
2016-Jan-30 20:32N 50°49' W 001°06'0 0.0
2016-Jan-30 19:32N 50°49' W 001°06'0 0.0
2016-Jan-30 18:32N 50°49' W 001°06'0 0.0
2016-Jan-30 17:32N 50°49' W 001°06'0 0.0
2016-Jan-30 16:32N 50°49' W 001°06'0 0.0
2016-Jan-30 15:32N 50°49' W 001°06'0 0.0
2016-Jan-30 14:33N 50°49' W 001°06'2 2.0
2016-Jan-30 13:33N 50°47' W 001°06'9 8.8
2016-Jan-30 12:34N 50°39' W 000°58'1110.7
2016-Jan-30 11:33N 50°30' W 001°07'  
Track history (hours):
 
Tides and Currents Weather Stations Pressure Air Temp Water Temp Dewpoint Dewpoint Depression Visibility Wind Speed Wind Dir Waves Ship Positions

Crown Topaz

Last reported at 2016-Feb-06 20:24 UTC. Time now 2016-Feb-13 06:48 UTC.
Position N 37°04' W 029°46'.

Length 152 m; draft 6.2 m.

Type: Cargo ship. MMSI: 357144000.

Date/timePositionNaut miles runAvg speedWind from/ knotsBaromVisibWave heightAir tempDewpointWater temp
2016-Feb-06 20:24N 37°04' W 029°46'1618.5
2016-Feb-06 19:33N 37°11' W 029°29'1918.8
2016-Feb-06 18:33N 37°20' W 029°08'1918.6
2016-Feb-06 17:33N 37°29' W 028°47'1918.6
2016-Feb-06 16:33N 37°38' W 028°27'1918.6
2016-Feb-06 15:34N 37°47' W 028°06'1919.1
2016-Feb-06 14:33N 37°56' W 027°45'1919.0
2016-Feb-06 13:33N 38°05' W 027°23'1918.7
2016-Feb-06 12:34N 38°14' W 027°02'1918.8
2016-Feb-06 11:34N 38°23' W 026°41'1918.7
2016-Feb-06 10:33N 38°31' W 026°20'1918.9
2016-Feb-06 09:33N 38°40' W 025°59'1616.4
2016-Feb-06 08:34N 38°43' W 025°38'4 3.9
2016-Feb-06 07:34N 38°45' W 025°35'3 3.3
2016-Feb-06 06:33N 38°48' W 025°33'2 2.4
2016-Feb-06 05:33N 38°50' W 025°34'2 2.3
2016-Feb-06 04:33N 38°52' W 025°35'1111.5
2016-Feb-06 03:33N 38°60' W 025°24'  
2016-Feb-03 09:23N 50°17' W 001°23'2418.7
2016-Feb-03 08:07N 50°22' W 000°47'1118.8
2016-Feb-03 07:30N 50°25' W 000°30'1818.5
2016-Feb-03 06:33N 50°29' W 000°03'4418.1
2016-Feb-03 04:07N 50°48' E 000°60'1119.4
2016-Feb-03 03:33N 50°56' E 001°13'2120.6
2016-Feb-03 02:33N 51°09' E 001°38'2020.4
2016-Feb-03 01:34N 51°24' E 001°59'1817.5
2016-Feb-03 00:32N 51°22' E 002°27'1212.2
2016-Feb-02 23:32N 51°22' E 002°47'1313.6
2016-Feb-02 22:33N 51°24' E 003°08'1414.1
2016-Feb-02 21:33N 51°25' E 003°31'8 7.7
2016-Feb-02 20:33N 51°24' E 003°43'9 9.0
2016-Feb-02 19:33N 51°24' E 003°57'7 7.1
2016-Feb-02 18:33N 51°22' E 004°08'6 5.8
2016-Feb-02 17:34N 51°21' E 004°17'0 0.0
2016-Feb-02 16:34N 51°21' E 004°17'3 3.4
2016-Feb-02 15:33N 51°18' E 004°20'3 2.8
2016-Feb-02 14:33N 51°16' E 004°23'0 0.0
2016-Feb-02 13:33N 51°16' E 004°23'0 0.0
2016-Feb-02 12:33N 51°16' E 004°23'0 0.0
2016-Feb-02 11:33N 51°16' E 004°23'0 0.0
2016-Feb-02 10:33N 51°16' E 004°23'0 0.0
2016-Feb-02 09:33N 51°16' E 004°23'0 0.0
2016-Feb-02 08:33N 51°16' E 004°23'0 0.0
2016-Feb-02 07:33N 51°16' E 004°23'0 0.0
2016-Feb-02 06:33N 51°16' E 004°23'0 0.0
2016-Feb-02 05:33N 51°16' E 004°23'0 0.0
2016-Feb-02 04:33N 51°16' E 004°23'0 0.0
2016-Feb-02 03:33N 51°16' E 004°23'0 0.0
2016-Feb-02 02:33N 51°16' E 004°23'0 0.0
2016-Feb-02 01:33N 51°16' E 004°23'0 0.0
2016-Feb-02 00:33N 51°16' E 004°23'0 0.0
2016-Feb-01 23:33N 51°16' E 004°23'0 0.0
2016-Feb-01 22:33N 51°16' E 004°23'0 0.0
2016-Feb-01 21:33N 51°16' E 004°23'0 0.0
2016-Feb-01 20:33N 51°16' E 004°23'0 0.0
2016-Feb-01 19:33N 51°16' E 004°23'0 0.0
2016-Feb-01 18:33N 51°16' E 004°23'0 0.0
2016-Feb-01 17:33N 51°16' E 004°23'0 0.0
2016-Feb-01 16:33N 51°16' E 004°23'0 0.0
2016-Feb-01 15:33N 51°16' E 004°23'0 0.0
2016-Feb-01 14:33N 51°16' E 004°23'0 0.0
2016-Feb-01 13:33N 51°16' E 004°23'0 0.0
2016-Feb-01 12:33N 51°16' E 004°23'0 0.0
2016-Feb-01 11:33N 51°16' E 004°23'0 0.0
2016-Feb-01 10:33N 51°16' E 004°23'0 0.0
2016-Feb-01 09:33N 51°16' E 004°23'1 0.7
2016-Feb-01 08:33N 51°16' E 004°22'5 5.1
2016-Feb-01 07:33N 51°20' E 004°18'1 0.9
2016-Feb-01 06:33N 51°21' E 004°17'3 3.2
2016-Feb-01 05:33N 51°23' E 004°13'10 9.8
2016-Feb-01 04:34N 51°24' E 003°57'1110.5
2016-Feb-01 03:34N 51°26' E 003°41'1313.4
2016-Feb-01 02:33N 51°24' E 003°19'1413.8
2016-Feb-01 01:33N 51°23' E 002°58'1110.9
2016-Feb-01 00:31N 51°22' E 002°40'10 9.7
2016-Jan-31 23:29N 51°20' E 002°24'1314.0
2016-Jan-31 22:33N 51°14' E 002°06'1312.7
2016-Jan-31 21:33N 51°07' E 001°48'1312.7
2016-Jan-31 20:33N 50°59' E 001°33'1612.5
2016-Jan-31 19:15N 50°44' E 001°21'8011.1
2016-Jan-31 12:05N 50°35' W 000°44'815.9
2016-Jan-31 11:33N 50°40' W 000°55'1110.7
2016-Jan-31 10:33N 50°48' W 001°07'1 1.2
2016-Jan-31 09:32N 50°49' W 001°06'0 0.0
2016-Jan-31 08:32N 50°49' W 001°06'0 0.0
2016-Jan-31 07:32N 50°49' W 001°06'0 0.0
2016-Jan-31 06:32N 50°49' W 001°06'0 0.0
2016-Jan-31 05:32N 50°49' W 001°06'0 0.0
2016-Jan-31 04:32N 50°49' W 001°06'0 0.0
2016-Jan-31 03:32N 50°49' W 001°06'0 0.0
2016-Jan-31 02:32N 50°49' W 001°06'0 0.0
2016-Jan-31 01:32N 50°49' W 001°06'0 0.0
2016-Jan-31 00:32N 50°49' W 001°06'0 0.0
2016-Jan-30 23:32N 50°49' W 001°06'0 0.0
2016-Jan-30 22:32N 50°49' W 001°06'0 0.0
2016-Jan-30 21:32N 50°49' W 001°06'0 0.0
2016-Jan-30 20:32N 50°49' W 001°06'0 0.0
2016-Jan-30 19:32N 50°49' W 001°06'0 0.0
2016-Jan-30 18:32N 50°49' W 001°06'0 0.0
2016-Jan-30 17:32N 50°49' W 001°06'0 0.0
2016-Jan-30 16:32N 50°49' W 001°06'0 0.0
2016-Jan-30 15:32N 50°49' W 001°06'0 0.0
2016-Jan-30 14:33N 50°49' W 001°06'2 2.0
2016-Jan-30 13:33N 50°47' W 001°06'9 8.8
2016-Jan-30 12:34N 50°39' W 000°58'1110.7
2016-Jan-30 11:33N 50°30' W 001°07'  

Dump ship's entire track history